Time;durP1;ratioP1;P1;durP2;ratioP2;P2;SDS_P1;SDS_P2;PMS_P1;PMS_P2;Temp;Humidity;BMP_temperature;BMP_pressure;BME280_temperature;BME280_humidity;BME280_pressure;Samples;Min_cycle;Max_cycle;Signal;HPM_P1;HPM_P2
2022/08/05 00:01:15;;;;;;;6.88;2.40;;;17.70;99.90;;;;;;6276056;22;20023;-92
2022/08/05 00:03:41;;;;;;;10.30;2.72;;;17.80;99.90;;;;;;6250332;22;20333;-92
2022/08/05 00:06:09;;;;;;;4.47;1.88;;;17.80;99.90;;;;;;6276158;22;20095;-92
2022/08/05 00:08:36;;;;;;;12.48;2.50;;;17.70;99.90;;;;;;6276413;22;20098;-92
2022/08/05 00:11:13;;;;;;;7.60;2.13;;;17.60;99.90;;;;;;6249366;22;20085;-91
2022/08/05 00:13:41;;;;;;;9.38;2.47;;;17.70;99.90;;;;;;6276470;22;20022;-91
2022/08/05 00:16:10;;;;;;;5.95;2.35;;;17.60;99.90;;;;;;6250025;22;20019;-91
2022/08/05 00:18:42;;;;;;;6.45;2.65;;;17.60;99.90;;;;;;6276075;22;20023;-91
2022/08/05 00:21:09;;;;;;;7.63;2.38;;;17.60;99.90;;;;;;6276779;22;20160;-93
2022/08/05 00:23:35;;;;;;;7.20;2.83;;;17.60;99.90;;;;;;6249869;22;20077;-91
2022/08/05 00:26:01;;;;;;;8.82;2.60;;;17.50;99.90;;;;;;6250080;22;20020;-90
2022/08/05 00:28:27;;;;;;;11.15;2.42;;;17.50;99.90;;;;;;6276162;22;20065;-91
2022/08/05 00:30:53;;;;;;;7.35;2.33;;;17.50;99.90;;;;;;6275530;22;20023;-93
2022/08/05 00:33:19;;;;;;;8.07;2.60;;;17.50;99.90;;;;;;6276832;22;20015;-92
2022/08/05 00:35:44;;;;;;;8.73;3.03;;;17.40;99.90;;;;;;6253088;22;20027;-92
2022/08/05 00:38:10;;;;;;;9.13;2.35;;;17.40;99.90;;;;;;6277140;22;20109;-93
2022/08/05 00:40:57;;;;;;;8.07;2.58;;;17.40;99.90;;;;;;6278301;22;20016;-92
2022/08/05 00:43:23;;;;;;;8.38;2.92;;;17.40;99.90;;;;;;6277998;22;20045;-92
2022/08/05 00:45:49;;;;;;;10.00;3.03;;;17.40;99.90;;;;;;6251684;22;20020;-93
2022/08/05 00:48:18;;;;;;;8.82;3.47;;;17.40;99.90;;;;;;6278409;22;20069;-91
2022/08/05 00:50:48;;;;;;;4.88;2.65;;;17.40;99.90;;;;;;6278350;22;20444;-93
2022/08/05 00:53:19;;;;;;;8.52;2.40;;;17.40;99.90;;;;;;6251813;22;20205;-93
2022/08/05 00:55:50;;;;;;;9.73;2.88;;;17.40;99.90;;;;;;6277789;22;20095;-93
2022/08/05 00:58:16;;;;;;;7.07;2.60;;;17.40;99.90;;;;;;6252164;22;20015;-92
2022/08/05 01:00:42;;;;;;;7.30;3.08;;;16.50;99.90;;;;;;6251525;22;20095;-93
2022/08/05 01:03:19;;;;;;;6.05;2.10;;;17.40;99.90;;;;;;6279327;22;20090;-92
2022/08/05 01:05:47;;;;;;;10.15;2.50;;;17.40;99.90;;;;;;6277206;22;20336;-93
2022/08/05 01:08:29;;;;;;;11.50;2.40;;;17.50;99.90;;;;;;6277396;22;20026;-92
2022/08/05 01:11:06;;;;;;;8.65;2.13;;;17.50;99.90;;;;;;6278189;22;20020;-92
2022/08/05 01:14:26;;;;;;;6.97;2.42;;;17.40;99.90;;;;;;6276536;22;20020;-93
2022/08/05 01:17:06;;;;;;;7.65;1.70;;;18.10;99.90;;;;;;6192606;23;20025;-93
2022/08/05 01:20:01;;;;;;;;;;;;;;;;;;;;;
2022/08/05 01:22:52;;;;;;;6.97;2.53;;;16.50;99.90;;;;;;6277331;22;20016;-93
2022/08/05 01:25:46;;;;;;;9.80;2.63;;;17.40;99.90;;;;;;6251967;22;20470;-93
2022/08/05 01:28:17;;;;;;;6.60;2.22;;;17.30;99.90;;;;;;6251374;22;20030;-92
2022/08/05 01:31:07;;;;;;;6.93;2.42;;;17.30;99.90;;;;;;6251063;22;20020;-92
2022/08/05 01:33:43;;;;;;;6.57;2.30;;;17.30;99.90;;;;;;6251794;22;20015;-93
2022/08/05 01:36:25;;;;;;;;;;;;;;;;;;;;;
2022/08/05 01:41:59;;;;;;;6.30;2.30;;;17.30;99.90;;;;;;6276430;22;20106;-92
2022/08/05 01:44:25;;;;;;;9.02;2.30;;;16.40;99.90;;;;;;6251468;22;20093;-92
2022/08/05 01:46:57;;;;;;;5.13;2.08;;;17.20;99.90;;;;;;6277013;22;20008;-93
2022/08/05 01:52:19;;;;;;;6.90;2.42;;;17.10;99.90;;;;;;6278533;22;20062;-93
2022/08/05 01:54:56;;;;;;;11.00;2.25;;;17.20;99.90;;;;;;6277860;22;20019;-93
2022/08/05 02:00:26;;;;;;;6.32;2.17;;;17.20;99.90;;;;;;6277242;22;20016;-93
2022/08/05 02:03:25;;;;;;;5.15;2.25;;;17.20;99.90;;;;;;6276986;22;20024;-91
2022/08/05 02:05:53;;;;;;;8.93;2.33;;;17.50;99.90;;;;;;6249493;22;20016;-92
2022/08/05 02:09:08;;;;;;;6.88;2.58;;;17.10;99.90;;;;;;6276541;22;20020;-93
2022/08/05 02:12:03;;;;;;;6.68;2.10;;;17.20;99.90;;;;;;6275368;22;20020;-92
2022/08/05 02:14:38;;;;;;;7.00;2.05;;;17.10;99.90;;;;;;6251271;22;20474;-91
2022/08/05 02:17:38;;;;;;;;;;;;;;;;;;;;;
2022/08/05 02:20:44;;;;;;;;;;;;;;;;;;;;;
2022/08/05 02:24:01;;;;;;;10.50;2.78;;;17.00;99.90;;;;;;6275425;22;20023;-93
2022/08/05 02:26:54;;;;;;;6.88;2.17;;;17.00;99.90;;;;;;6244629;22;20015;-93
2022/08/05 02:29:46;;;;;;;;;;;;;;;;;;;;;
2022/08/05 02:32:45;;;;;;;8.20;2.35;;;17.00;99.90;;;;;;6276274;22;20090;-93
2022/08/05 02:35:39;;;;;;;6.38;2.40;;;16.60;99.90;;;;;;6251701;22;20019;-92
2022/08/05 02:47:28;;;;;;;4.10;1.95;;;17.00;99.90;;;;;;6260606;22;20102;-91
2022/08/05 02:50:31;;;;;;;;;;;;;;;;;;;;;
2022/08/05 02:57:50;;;;;;;;;;;;;;;;;;;;;
2022/08/05 03:00:30;;;;;;;6.70;2.50;;;16.60;99.90;;;;;;6280723;22;20022;-92
2022/08/05 03:03:03;;;;;;;5.70;2.85;;;16.80;99.90;;;;;;6261053;22;20016;-93
2022/08/05 03:05:32;;;;;;;12.25;3.00;;;16.70;99.90;;;;;;6275876;22;20073;-93
2022/08/05 03:11:00;;;;;;;6.15;2.60;;;16.80;99.90;;;;;;6251447;22;20019;-93
2022/08/05 03:13:33;;;;;;;5.82;2.63;;;16.80;99.90;;;;;;6224870;22;20016;-92
2022/08/05 03:16:14;;;;;;;4.80;2.60;;;16.10;99.90;;;;;;6253083;22;20146;-93
2022/08/05 03:22:05;;;;;;;6.68;3.08;;;15.60;99.90;;;;;;6251304;22;20023;-92
2022/08/05 03:25:28;;;;;;;8.88;3.20;;;16.70;99.90;;;;;;6251196;22;20027;-93
2022/08/05 03:27:57;;;;;;;6.65;2.35;;;17.30;99.90;;;;;;6250321;22;20553;-92
2022/08/05 03:31:00;;;;;;;;;;;;;;;;;;;;;
2022/08/05 03:34:18;;;;;;;6.45;2.55;;;16.80;99.90;;;;;;6213857;22;20477;-93
2022/08/05 03:37:08;;;;;;;9.20;2.63;;;16.70;99.90;;;;;;6255104;22;20434;-92
2022/08/05 03:40:25;;;;;;;8.27;3.03;;;16.70;99.90;;;;;;6268582;22;20037;-92
2022/08/05 03:46:28;;;;;;;6.38;2.33;;;17.50;99.90;;;;;;6247713;22;20019;-92
2022/08/05 03:52:24;;;;;;;5.60;2.30;;;16.60;99.90;;;;;;6259522;22;20049;-92
2022/08/05 03:55:10;;;;;;;6.50;2.50;;;16.60;99.90;;;;;;6249655;22;20786;-92
2022/08/05 03:58:07;;;;;;;6.95;2.80;;;15.30;99.90;;;;;;6225032;22;20307;-92
2022/08/05 04:00:40;;;;;;;9.15;3.25;;;16.60;99.90;;;;;;6226860;22;20020;-92
2022/08/05 04:03:08;;;;;;;6.13;2.33;;;16.60;99.90;;;;;;6225134;22;20022;-92
2022/08/05 04:05:47;;;;;;;;;;;;;;;;;;;;;
2022/08/05 04:09:04;;;;;;;6.93;2.13;;;16.50;99.90;;;;;;6278013;22;20139;-92
2022/08/05 04:12:16;;;;;;;;;;;;;;;;;;;;;
2022/08/05 04:25:48;;;;;;;5.70;2.70;;;16.30;99.90;;;;;;6306805;22;20393;-93
2022/08/05 04:32:26;;;;;;;6.35;2.67;;;17.10;99.90;;;;;;6245756;23;20492;-93
2022/08/05 04:36:12;;;;;;;;;;;;;;;;;;;;;
2022/08/05 04:46:33;;;;;;;;;;;;;;;;;;;;;
2022/08/05 04:50:18;;;;;;;;;;;;;;;;;;;;;
2022/08/05 04:57:28;;;;;;;9.63;3.15;;;16.80;99.90;;;;;;5927971;24;20353;-93
2022/08/05 04:59:57;;;;;;;6.38;3.35;;;15.70;99.90;;;;;;6003151;23;20052;-92
2022/08/05 05:02:28;;;;;;;6.63;3.55;;;16.30;99.90;;;;;;6011123;23;20024;-90
2022/08/05 05:04:55;;;;;;;6.68;3.53;;;16.30;99.90;;;;;;6247348;22;20532;-91
2022/08/05 05:07:21;;;;;;;7.20;3.75;;;16.20;99.90;;;;;;6256793;22;20023;-92
2022/08/05 05:09:47;;;;;;;7.35;3.67;;;16.30;99.90;;;;;;6283581;22;20086;-91
2022/08/05 05:12:37;;;;;;;9.13;3.75;;;16.30;99.90;;;;;;6282584;22;20023;-91
2022/08/05 05:15:04;;;;;;;10.15;3.70;;;15.60;99.90;;;;;;6283167;22;20015;-91
2022/08/05 05:17:41;;;;;;;6.47;3.58;;;16.40;99.90;;;;;;6257530;22;20046;-92
2022/08/05 05:20:21;;;;;;;7.75;3.22;;;16.40;99.90;;;;;;6258736;22;20015;-92
2022/08/05 05:22:47;;;;;;;6.53;4.47;;;16.40;99.90;;;;;;6259231;22;20011;-92
2022/08/05 05:25:13;;;;;;;7.05;4.18;;;16.50;99.90;;;;;;6258734;22;20431;-92
2022/08/05 05:27:39;;;;;;;6.15;3.45;;;16.40;99.90;;;;;;6257742;22;20038;-91
2022/08/05 05:30:10;;;;;;;6.07;4.18;;;16.40;99.90;;;;;;6257137;22;20019;-91
2022/08/05 05:32:58;;;;;;;8.15;4.47;;;16.40;99.90;;;;;;6286974;22;20064;-91
2022/08/05 05:36:05;;;;;;;;;;;;;;;;;;;;;
2022/08/05 05:38:52;;;;;;;9.15;4.50;;;16.50;99.90;;;;;;6288335;22;20072;-89
2022/08/05 05:45:11;;;;;;;7.03;4.22;;;16.40;99.90;;;;;;6202779;22;20023;-91
2022/08/05 06:21:52;;;;;;;;;;;;;;;;;;;;;
2022/08/05 06:38:04;;;;;;;6.47;1.52;;;18.00;99.90;;;;;;5049608;28;20543;-89
2022/08/05 06:41:38;;;;;;;;;;;;;;;;;;;;;
2022/08/05 06:45:14;;;;;;;8.02;1.63;;;18.10;99.90;;;;;;5015682;28;20076;-91
2022/08/05 06:54:29;;;;;;;5.93;1.42;;;18.10;99.90;;;;;;5043829;28;20096;-89
2022/08/05 06:56:58;;;;;;;3.65;0.95;;;18.20;99.90;;;;;;5033327;28;20132;-91
2022/08/05 07:00:04;;;;;;;;;;;;;;;;;;;;;
2022/08/05 07:02:30;;;;;;;3.20;0.90;;;17.90;99.90;;;;;;5032433;28;20059;-91
2022/08/05 07:04:58;;;;;;;3.22;0.75;;;18.70;99.90;;;;;;5049910;28;20049;-89
2022/08/05 07:07:33;;;;;;;2.47;0.80;;;18.80;99.90;;;;;;5016403;28;20120;-89
2022/08/05 07:10:05;;;;;;;2.78;0.70;;;18.80;99.90;;;;;;5033410;28;20053;-90
2022/08/05 07:22:44;;;;;;;3.80;0.82;;;19.10;99.90;;;;;;4953176;28;20055;-90
2022/08/05 07:26:07;;;;;;;;;;;;;;;;;;;;;
2022/08/05 07:28:51;;;;;;;4.28;0.50;;;19.40;99.90;;;;;;4844590;29;20057;-88
2022/08/05 07:31:25;;;;;;;3.47;0.93;;;19.40;99.90;;;;;;4832520;29;20057;-92
2022/08/05 07:34:01;;;;;;;;;;;;;;;;;;;;;
2022/08/05 07:43:12;;;;;;;6.53;0.88;;;19.70;99.90;;;;;;4976163;28;20500;-91
2022/08/05 07:46:16;;;;;;;5.38;0.80;;;19.70;99.90;;;;;;4956426;29;20048;-95
2022/08/05 07:56:55;;;;;;;3.67;0.65;;;19.60;99.90;;;;;;4958340;29;20055;-92
2022/08/05 07:59:39;;;;;;;3.10;0.63;;;19.40;99.90;;;;;;4925278;28;20490;-92
2022/08/05 08:03:11;;;;;;;2.50;0.68;;;19.30;99.90;;;;;;4960066;28;20039;-93
2022/08/05 08:06:32;;;;;;;3.30;0.80;;;19.60;99.90;;;;;;4918362;29;20055;-94
2022/08/05 08:09:18;;;;;;;;;;;;;;;;;;;;;
2022/08/05 08:11:54;;;;;;;3.30;0.57;;;19.70;99.90;;;;;;4934367;29;20143;-91
2022/08/05 08:14:41;;;;;;;3.35;0.70;;;18.90;99.90;;;;;;4922222;29;20023;-92
2022/08/05 08:17:53;;;;;;;3.47;1.15;;;19.50;99.90;;;;;;4953612;28;20058;-93
2022/08/05 08:20:40;;;;;;;5.40;1.23;;;19.30;99.90;;;;;;4880306;29;20141;-94
2022/08/05 08:23:29;;;;;;;4.03;0.80;;;19.20;99.90;;;;;;4944477;28;20141;-91
2022/08/05 08:26:49;;;;;;;2.67;0.50;;;18.90;99.90;;;;;;4933266;28;20059;-93
2022/08/05 08:30:13;;;;;;;5.45;0.57;;;19.70;99.90;;;;;;4965837;28;20050;-89
2022/08/05 08:36:32;;;;;;;3.50;0.50;;;19.40;99.90;;;;;;4977625;28;20161;-92
2022/08/05 08:39:29;;;;;;;3.63;0.70;;;19.40;99.90;;;;;;4979413;28;20374;-87
2022/08/05 08:46:01;;;;;;;4.32;0.75;;;19.70;99.90;;;;;;4995156;28;20037;-89
2022/08/05 08:49:16;;;;;;;3.30;0.88;;;19.60;99.90;;;;;;4973167;28;20094;-87
2022/08/05 08:52:49;;;;;;;;;;;;;;;;;;;;;
2022/08/05 08:55:38;;;;;;;2.97;0.50;;;19.10;99.90;;;;;;4926887;29;20167;-92
2022/08/05 09:11:50;;;;;;;4.13;0.65;;;19.30;99.90;;;;;;5061176;23;20128;-91
2022/08/05 09:14:32;;;;;;;;;;;;;;;;;;;;;
2022/08/05 09:17:53;;;;;;;4.32;0.88;;;19.60;99.90;;;;;;5018176;28;20045;-88
2022/08/05 09:20:50;;;;;;;1.95;0.50;;;19.70;99.90;;;;;;5006450;28;20054;-92
2022/08/05 09:23:37;;;;;;;2.75;0.65;;;19.70;99.90;;;;;;5022349;28;20512;-90
2022/08/05 09:27:04;;;;;;;4.90;0.60;;;19.80;99.90;;;;;;5006033;28;20053;-90
2022/08/05 09:30:06;;;;;;;7.35;1.13;;;19.90;99.90;;;;;;5002147;28;20047;-94
2022/08/05 09:32:53;;;;;;;11.48;1.48;;;19.80;99.90;;;;;;5030684;28;20171;-92
2022/08/05 09:35:19;;;;;;;1.80;0.43;;;19.80;99.90;;;;;;5017113;28;20049;-89
2022/08/05 09:38:59;;;;;;;;;;;;;;;;;;;;;
2022/08/05 09:42:30;;;;;;;3.38;0.47;;;19.90;99.90;;;;;;4997096;28;20079;-91
2022/08/05 09:45:10;;;;;;;7.55;0.68;;;20.30;99.90;;;;;;4999921;28;20038;-94
2022/08/05 09:47:41;;;;;;;2.40;0.40;;;20.30;99.90;;;;;;5023103;28;20195;-89
2022/08/05 09:50:10;;;;;;;4.55;0.40;;;20.30;99.90;;;;;;4999791;28;20384;-88
2022/08/05 09:52:36;;;;;;;2.17;0.40;;;20.30;99.90;;;;;;5023700;28;20037;-87
2022/08/05 09:55:39;;;;;;;;;;;;;;;;;;;;;
2022/08/05 09:58:20;;;;;;;1.60;0.20;;;19.30;98.90;;;;;;5032524;28;20045;-91
2022/08/05 10:01:06;;;;;;;1.88;0.32;;;19.90;99.90;;;;;;5014059;28;20141;-92
2022/08/05 10:04:55;;;;;;;2.45;0.30;;;19.10;98.60;;;;;;5028470;28;20123;-89
2022/08/05 10:08:00;;;;;;;1.88;0.20;;;19.60;97.80;;;;;;4951222;29;20051;-92
2022/08/05 10:10:52;;;;;;;4.00;0.30;;;20.00;98.10;;;;;;4944821;29;20172;-89
2022/08/05 10:28:09;;;;;;;0.13;0.13;;;20.20;94.20;;;;;;4862573;29;20539;-89
2022/08/05 10:33:49;;;;;;;;;;;;;;;;;;;;;
2022/08/05 10:36:28;;;;;;;2.85;0.38;;;20.20;93.10;;;;;;5032902;28;20041;-89
2022/08/05 10:39:26;;;;;;;1.80;0.32;;;20.30;90.10;;;;;;5016015;28;20056;-89
2022/08/05 10:46:20;;;;;;;3.95;0.25;;;20.40;84.50;;;;;;5025423;28;20049;-90
2022/08/05 10:52:40;;;;;;;5.55;0.75;;;20.40;86.10;;;;;;4924867;29;20052;-88
2022/08/05 10:55:23;;;;;;;3.25;0.20;;;20.40;84.30;;;;;;4934195;29;20047;-89
2022/08/05 10:58:21;;;;;;;2.63;0.52;;;20.40;84.60;;;;;;4933573;29;20044;-89
2022/08/05 11:01:13;;;;;;;;;;;;;;;;;;;;;
2022/08/05 11:04:16;;;;;;;2.90;0.32;;;20.90;89.90;;;;;;5018229;28;20049;-89
2022/08/05 11:10:26;;;;;;;2.97;0.32;;;20.80;90.80;;;;;;4963237;28;20137;-90
2022/08/05 11:15:42;;;;;;;3.95;0.50;;;20.60;88.70;;;;;;3506046;23;20059;-87
2022/08/05 11:26:57;;;;;;;3.65;0.20;;;20.20;91.30;;;;;;4858259;29;20064;-90
2022/08/05 11:30:21;;;;;;;9.13;0.90;;;20.20;92.20;;;;;;4834213;29;20497;-89
2022/08/05 11:40:03;;;;;;;0.90;0.30;;;20.20;91.40;;;;;;5015792;28;20523;-89
2022/08/05 11:42:53;;;;;;;3.17;0.40;;;19.90;92.00;;;;;;5009296;23;20486;-88
2022/08/05 11:45:51;;;;;;;1.90;0.55;;;20.30;92.10;;;;;;4989045;28;20038;-92
2022/08/05 11:49:06;;;;;;;5.97;0.40;;;20.30;92.30;;;;;;4945154;29;20098;-91
2022/08/05 11:59:09;;;;;;;2.42;0.50;;;20.70;93.90;;;;;;5345686;22;20064;-90
2022/08/05 12:02:08;;;;;;;1.35;0.20;;;20.00;94.70;;;;;;4980817;28;20073;-90
2022/08/05 12:05:23;;;;;;;0.57;0.20;;;20.20;94.80;;;;;;5005505;28;20046;-91
2022/08/05 12:08:42;;;;;;;1.98;0.30;;;20.10;93.80;;;;;;4999077;28;20084;-89
2022/08/05 12:12:03;;;;;;;;;;;;;;;;;;;;;
2022/08/05 12:15:22;;;;;;;1.60;0.45;;;20.00;94.30;;;;;;4962522;28;20499;-87
2022/08/05 12:17:54;;;;;;;1.10;0.20;;;20.20;93.60;;;;;;5017178;28;20103;-88
2022/08/05 12:20:52;;;;;;;0.85;0.30;;;20.10;94.40;;;;;;4987035;28;20038;-88
2022/08/05 12:24:13;;;;;;;2.65;0.38;;;20.20;94.10;;;;;;5015311;28;20042;-90
2022/08/05 12:27:45;;;;;;;;;;;;;;;;;;;;;
2022/08/05 12:31:24;;;;;;;2.70;0.40;;;20.60;94.70;;;;;;4917377;29;20063;-88
2022/08/05 12:37:37;;;;;;;0.65;0.17;;;20.00;93.60;;;;;;5021223;22;20482;-90
2022/08/05 12:50:10;;;;;;;;;;;;;;;;;;;;;
2022/08/05 12:58:42;;;;;;;0.80;0.30;;;20.00;95.60;;;;;;5039358;22;20052;-88
2022/08/05 13:02:11;;;;;;;0.70;0.30;;;19.60;94.90;;;;;;4977390;28;20121;-87
2022/08/05 13:04:52;;;;;;;1.38;0.32;;;19.60;93.90;;;;;;4984626;28;20092;-89
2022/08/05 13:07:26;;;;;;;2.70;0.30;;;19.90;93.40;;;;;;5017803;28;20550;-84
2022/08/05 13:09:57;;;;;;;1.45;0.35;;;19.90;93.30;;;;;;5033432;28;20080;-82
2022/08/05 13:12:26;;;;;;;2.08;0.40;;;19.90;92.50;;;;;;5000043;28;20049;-82
2022/08/05 13:15:01;;;;;;;1.10;0.20;;;19.80;93.50;;;;;;5012195;28;20081;-83
2022/08/05 13:17:28;;;;;;;1.70;0.20;;;19.90;93.50;;;;;;4996741;28;20125;-83
2022/08/05 13:20:03;;;;;;;0.60;0.40;;;19.90;93.90;;;;;;5014257;28;20049;-83
2022/08/05 13:22:30;;;;;;;2.08;0.20;;;20.00;95.00;;;;;;4996954;28;20489;-83
2022/08/05 13:25:00;;;;;;;2.28;0.30;;;20.00;94.90;;;;;;4998572;28;20077;-82
2022/08/05 13:27:45;;;;;;;1.75;0.50;;;20.00;95.50;;;;;;5012628;28;20056;-82
2022/08/05 13:30:14;;;;;;;1.23;0.15;;;18.90;94.60;;;;;;5000682;28;20041;-82
2022/08/05 13:32:40;;;;;;;5.05;0.63;;;19.80;94.20;;;;;;4996017;28;20046;-81
2022/08/05 13:35:08;;;;;;;1.67;0.30;;;19.70;94.50;;;;;;5014081;28;20046;-81
2022/08/05 13:37:34;;;;;;;3.85;0.55;;;19.80;95.30;;;;;;4996851;28;20084;-82
2022/08/05 13:40:01;;;;;;;1.67;0.30;;;19.80;95.30;;;;;;4997740;28;20042;-83
2022/08/05 13:42:30;;;;;;;1.70;0.57;;;20.50;95.80;;;;;;5014324;28;20041;-82
2022/08/05 13:44:56;;;;;;;5.43;0.82;;;19.80;97.00;;;;;;5012868;28;20040;-82
2022/08/05 13:47:23;;;;;;;5.57;0.65;;;19.70;98.20;;;;;;4998541;28;20103;-82
2022/08/05 13:49:50;;;;;;;3.97;0.50;;;19.70;99.00;;;;;;4998414;28;20392;-82
2022/08/05 13:52:25;;;;;;;2.47;0.68;;;19.70;99.70;;;;;;4997414;28;20041;-80
2022/08/05 13:54:51;;;;;;;4.18;1.17;;;19.60;99.60;;;;;;5013809;28;20095;-81
2022/08/05 13:57:17;;;;;;;2.55;0.70;;;19.60;99.60;;;;;;4995997;28;20057;-82
2022/08/05 13:59:43;;;;;;;4.32;0.60;;;19.60;99.90;;;;;;4979883;28;20056;-82
2022/08/05 14:02:11;;;;;;;4.20;0.60;;;19.60;99.90;;;;;;5000010;28;20389;-82
2022/08/05 14:07:30;;;;;;;2.20;0.40;;;19.70;99.90;;;;;;4995505;28;20050;-82
2022/08/05 14:09:56;;;;;;;1.38;0.30;;;19.70;99.90;;;;;;4980239;28;20516;-82
2022/08/05 14:12:23;;;;;;;1.67;0.43;;;19.70;99.50;;;;;;5002993;28;20045;-83
2022/08/05 14:14:49;;;;;;;10.00;1.23;;;19.50;98.90;;;;;;5027107;28;20123;-83
2022/08/05 14:17:15;;;;;;;4.72;0.60;;;19.70;98.60;;;;;;5011167;28;20046;-82
2022/08/05 14:19:42;;;;;;;1.45;0.30;;;19.60;98.20;;;;;;4996326;28;20049;-84
2022/08/05 14:22:08;;;;;;;5.05;0.30;;;19.70;98.60;;;;;;5012352;28;20378;-83
2022/08/05 14:24:34;;;;;;;0.15;0.10;;;19.60;97.10;;;;;;5027677;28;20073;-83
2022/08/05 14:27:01;;;;;;;1.02;0.25;;;19.70;96.30;;;;;;5011136;28;20042;-83
2022/08/05 14:29:27;;;;;;;1.02;0.28;;;19.70;96.40;;;;;;4995722;28;20042;-84
2022/08/05 14:31:53;;;;;;;1.17;0.40;;;19.70;96.10;;;;;;4995655;28;20042;-84
2022/08/05 14:34:19;;;;;;;1.45;0.25;;;19.70;96.20;;;;;;4996064;28;20050;-83
2022/08/05 14:36:47;;;;;;;2.13;0.32;;;19.80;96.00;;;;;;5023838;28;20046;-83
2022/08/05 14:39:13;;;;;;;1.60;0.30;;;19.70;95.40;;;;;;5019599;28;20565;-82
2022/08/05 14:41:39;;;;;;;1.52;0.50;;;19.60;95.20;;;;;;5008320;28;20042;-83
2022/08/05 14:44:10;;;;;;;2.55;0.30;;;19.60;95.70;;;;;;5000603;28;20042;-83
2022/08/05 14:46:36;;;;;;;1.17;0.22;;;19.70;95.60;;;;;;5017912;28;20428;-83
2022/08/05 14:49:05;;;;;;;0.80;0.20;;;19.70;95.20;;;;;;5016815;28;20037;-82
2022/08/05 14:51:31;;;;;;;4.47;0.80;;;19.70;94.50;;;;;;5001136;28;20567;-82
2022/08/05 14:53:58;;;;;;;3.28;0.40;;;19.60;94.70;;;;;;4983533;28;20044;-82
2022/08/05 14:56:24;;;;;;;2.10;0.30;;;19.60;94.30;;;;;;5000954;28;20571;-82
2022/08/05 14:58:50;;;;;;;6.40;0.47;;;19.60;94.70;;;;;;4997564;28;20086;-83
2022/08/05 15:01:18;;;;;;;2.67;0.50;;;19.60;95.20;;;;;;5005328;28;20124;-83
2022/08/05 15:03:44;;;;;;;4.38;0.60;;;19.50;96.40;;;;;;4998925;28;20089;-83
2022/08/05 15:06:13;;;;;;;1.23;0.40;;;19.40;96.80;;;;;;4984501;28;20088;-82
2022/08/05 15:08:40;;;;;;;0.98;0.25;;;19.30;96.70;;;;;;4999838;28;20057;-82
2022/08/05 15:11:09;;;;;;;2.83;0.45;;;19.40;97.00;;;;;;4985382;28;20037;-83
2022/08/05 15:13:35;;;;;;;3.28;0.38;;;19.40;97.50;;;;;;5002868;28;20046;-82
2022/08/05 15:16:01;;;;;;;2.08;0.40;;;19.50;97.20;;;;;;5003131;28;20539;-81
2022/08/05 15:18:27;;;;;;;5.03;0.65;;;19.50;97.10;;;;;;5010894;28;20046;-82
2022/08/05 15:20:53;;;;;;;2.38;0.45;;;19.50;97.80;;;;;;5016627;28;20045;-81
2022/08/05 15:23:19;;;;;;;2.20;0.35;;;19.30;96.70;;;;;;5019589;28;20492;-81
2022/08/05 15:25:45;;;;;;;0.47;0.30;;;19.20;96.50;;;;;;4998588;28;20050;-82
2022/08/05 15:28:12;;;;;;;0.68;0.30;;;19.30;96.50;;;;;;5016872;28;20117;-82
2022/08/05 15:30:38;;;;;;;0.90;0.40;;;19.40;95.70;;;;;;4999102;28;20104;-81
2022/08/05 15:33:05;;;;;;;1.35;0.40;;;19.50;95.40;;;;;;5015998;28;20050;-82
2022/08/05 15:35:31;;;;;;;2.65;1.00;;;19.70;96.00;;;;;;4998975;28;20046;-82
2022/08/05 15:37:57;;;;;;;1.63;0.35;;;19.90;96.40;;;;;;4998490;28;20393;-84
2022/08/05 15:40:23;;;;;;;2.17;0.50;;;20.00;95.90;;;;;;5016511;28;20049;-82
2022/08/05 15:42:49;;;;;;;2.83;0.52;;;20.00;95.80;;;;;;5016441;28;20060;-82
2022/08/05 15:45:15;;;;;;;2.22;0.30;;;20.00;95.60;;;;;;5015774;28;20042;-82
2022/08/05 15:47:42;;;;;;;1.50;0.50;;;19.90;95.50;;;;;;4998533;28;20038;-81
2022/08/05 15:50:09;;;;;;;2.33;0.40;;;19.80;95.30;;;;;;4998808;28;20049;-81
2022/08/05 15:52:38;;;;;;;3.72;0.47;;;20.00;96.40;;;;;;5015303;28;20072;-82
2022/08/05 15:55:07;;;;;;;2.17;0.60;;;20.00;95.90;;;;;;5016322;28;20046;-81
2022/08/05 15:57:33;;;;;;;2.17;0.32;;;20.00;95.00;;;;;;5016047;28;20046;-82
2022/08/05 15:59:59;;;;;;;1.23;0.40;;;20.00;95.20;;;;;;5015437;28;20470;-82
2022/08/05 16:02:24;;;;;;;3.40;0.77;;;20.00;95.80;;;;;;4982805;28;20100;-81
2022/08/05 16:04:51;;;;;;;1.55;0.60;;;19.90;95.00;;;;;;5016194;28;20448;-82
2022/08/05 16:07:20;;;;;;;2.38;0.50;;;19.80;95.00;;;;;;4997651;28;20045;-81
2022/08/05 16:09:47;;;;;;;6.30;1.23;;;19.80;95.80;;;;;;4982722;28;20046;-81
2022/08/05 16:12:17;;;;;;;2.08;0.45;;;19.70;95.10;;;;;;5016240;28;20046;-82
2022/08/05 16:14:43;;;;;;;4.28;0.50;;;19.60;95.40;;;;;;5015048;28;20085;-83
2022/08/05 16:17:09;;;;;;;2.20;0.35;;;19.60;95.50;;;;;;4998787;28;20081;-82
2022/08/05 16:19:35;;;;;;;1.40;0.30;;;19.50;94.10;;;;;;4998380;28;20446;-82
2022/08/05 16:22:01;;;;;;;1.45;0.38;;;19.40;93.20;;;;;;5014846;28;20088;-82
2022/08/05 16:24:27;;;;;;;1.80;0.40;;;19.20;93.30;;;;;;4998275;28;20077;-82
2022/08/05 16:27:00;;;;;;;0.50;0.30;;;19.20;93.80;;;;;;5015894;28;20531;-82
2022/08/05 16:29:27;;;;;;;3.40;1.00;;;19.40;94.10;;;;;;4981105;28;20481;-82
2022/08/05 16:31:54;;;;;;;1.70;0.50;;;19.50;92.70;;;;;;4981676;28;20045;-82
2022/08/05 16:34:21;;;;;;;0.98;0.43;;;19.80;92.60;;;;;;5014604;28;20478;-81
2022/08/05 16:36:47;;;;;;;2.58;0.50;;;20.10;92.10;;;;;;5015386;28;20078;-83
2022/08/05 16:39:13;;;;;;;1.02;0.40;;;20.30;91.10;;;;;;5015422;28;20077;-82
2022/08/05 16:41:42;;;;;;;8.73;0.63;;;20.40;90.60;;;;;;5014498;28;20507;-82
2022/08/05 16:44:09;;;;;;;1.80;0.68;;;20.40;90.70;;;;;;5015249;28;20045;-82
2022/08/05 16:46:35;;;;;;;1.63;0.47;;;20.20;91.30;;;;;;4997902;28;20401;-81
2022/08/05 16:49:02;;;;;;;3.17;0.40;;;19.90;91.80;;;;;;5014667;28;20038;-82
2022/08/05 16:51:30;;;;;;;2.47;0.43;;;19.50;92.30;;;;;;4997922;28;20058;-82
2022/08/05 16:53:56;;;;;;;3.00;0.50;;;19.30;93.50;;;;;;4997768;28;20044;-82
2022/08/05 16:56:22;;;;;;;4.13;0.77;;;19.20;93.80;;;;;;4996586;28;20077;-83
2022/08/05 16:58:48;;;;;;;1.27;0.50;;;19.10;94.50;;;;;;4997261;28;20101;-82
2022/08/05 17:01:14;;;;;;;2.25;0.50;;;19.10;95.40;;;;;;4996791;28;20058;-82
2022/08/05 17:03:40;;;;;;;5.82;0.85;;;19.00;96.00;;;;;;4996655;28;20046;-81
2022/08/05 17:06:06;;;;;;;3.35;1.10;;;19.00;96.40;;;;;;4981153;28;20057;-83
2022/08/05 17:08:33;;;;;;;4.93;0.60;;;18.90;97.10;;;;;;5015038;28;20096;-82
2022/08/05 17:11:00;;;;;;;3.08;0.80;;;18.90;97.30;;;;;;4996638;28;20464;-82
2022/08/05 17:13:26;;;;;;;3.28;0.50;;;18.90;97.60;;;;;;4997094;28;20049;-82
2022/08/05 17:15:52;;;;;;;3.42;0.75;;;18.90;97.00;;;;;;4980686;28;20046;-81
2022/08/05 17:18:17;;;;;;;0.85;0.50;;;18.90;95.80;;;;;;4980352;28;20038;-81
2022/08/05 17:20:43;;;;;;;3.00;0.45;;;18.80;95.20;;;;;;5014752;28;20049;-82
2022/08/05 17:23:09;;;;;;;1.23;0.40;;;18.70;95.20;;;;;;5014766;28;20077;-82
2022/08/05 17:25:35;;;;;;;1.00;0.40;;;18.60;95.30;;;;;;4996487;28;20045;-82
2022/08/05 17:28:03;;;;;;;1.05;0.40;;;18.50;95.60;;;;;;4996886;28;20389;-81
2022/08/05 17:30:28;;;;;;;5.05;0.68;;;18.40;96.20;;;;;;4980060;28;20050;-81
2022/08/05 17:32:54;;;;;;;1.80;0.35;;;18.30;96.70;;;;;;4980974;28;20042;-82
2022/08/05 17:35:20;;;;;;;2.78;0.45;;;18.20;96.90;;;;;;4996760;28;20157;-81
2022/08/05 17:37:48;;;;;;;1.67;0.32;;;18.10;97.10;;;;;;4995837;28;20484;-83
2022/08/05 17:40:16;;;;;;;2.47;0.52;;;18.10;97.30;;;;;;5014435;28;20140;-82
2022/08/05 17:42:44;;;;;;;4.00;0.50;;;18.00;97.10;;;;;;4996986;28;20060;-81
2022/08/05 17:45:10;;;;;;;4.18;0.68;;;18.00;97.20;;;;;;4996092;28;20453;-82
2022/08/05 17:47:36;;;;;;;1.00;0.50;;;17.90;97.70;;;;;;5014383;28;20053;-82
2022/08/05 17:50:03;;;;;;;1.70;0.47;;;17.90;98.10;;;;;;4980789;28;20128;-83
2022/08/05 17:52:30;;;;;;;2.50;0.52;;;17.80;98.20;;;;;;4995761;28;20046;-81
2022/08/05 17:54:56;;;;;;;1.70;0.47;;;17.70;98.40;;;;;;4996436;28;20084;-81
2022/08/05 17:57:22;;;;;;;1.45;0.52;;;17.60;98.50;;;;;;4979985;28;20085;-82
2022/08/05 17:59:47;;;;;;;1.77;0.50;;;17.70;98.70;;;;;;5013017;28;20397;-81
2022/08/05 18:02:13;;;;;;;0.93;0.45;;;17.70;98.50;;;;;;4980254;28;20107;-81
2022/08/05 18:04:39;;;;;;;5.72;0.50;;;17.70;99.10;;;;;;4996696;28;20122;-81
2022/08/05 18:07:05;;;;;;;1.48;0.32;;;17.80;99.00;;;;;;4979679;28;20511;-82
2022/08/05 18:09:33;;;;;;;2.75;0.60;;;17.80;99.10;;;;;;4996425;28;20069;-81
2022/08/05 18:11:59;;;;;;;1.23;0.38;;;17.90;99.30;;;;;;5013841;28;20049;-82
2022/08/05 18:14:25;;;;;;;4.38;0.60;;;17.90;99.10;;;;;;4995518;28;20041;-82
2022/08/05 18:16:50;;;;;;;1.65;0.20;;;17.90;98.90;;;;;;5013655;28;20173;-81
2022/08/05 18:19:16;;;;;;;2.90;0.50;;;17.80;99.00;;;;;;5013906;28;20038;-81
2022/08/05 18:21:42;;;;;;;2.83;0.47;;;17.80;99.10;;;;;;5013075;28;20060;-81
2022/08/05 18:24:08;;;;;;;2.53;0.40;;;17.70;99.30;;;;;;5013832;28;20052;-82
2022/08/05 18:26:34;;;;;;;1.27;0.32;;;17.60;99.40;;;;;;4996362;28;20053;-81
2022/08/05 18:28:59;;;;;;;1.92;0.90;;;17.60;99.80;;;;;;5013084;28;20482;-82